createdAt,value
2017-05-15T00:00:09.759Z,92.82
2017-05-15T00:01:18.719Z,93.3
2017-05-15T00:02:28.298Z,93.59
2017-05-15T00:03:37.257Z,93.3
2017-05-15T00:04:46.211Z,93.93
2017-05-15T00:05:55.168Z,93.49
2017-05-15T00:07:04.130Z,93.54
2017-05-15T00:08:13.339Z,93.44
2017-05-15T00:09:22.304Z,93.44
2017-05-15T00:10:31.264Z,93.54
2017-05-15T00:11:40.222Z,93.44
2017-05-15T00:12:49.247Z,93.93
2017-05-15T00:13:58.466Z,93.73
2017-05-15T00:15:07.423Z,93.4
2017-05-15T00:16:16.381Z,93.11
2017-05-15T00:17:25.346Z,93.44
2017-05-15T00:18:34.303Z,93.4
2017-05-15T00:19:43.513Z,93.88
2017-05-15T00:20:52.807Z,93.78
2017-05-15T00:22:01.860Z,93.59
2017-05-15T00:23:10.821Z,93.78
2017-05-15T00:24:19.789Z,93.4
2017-05-15T00:25:28.998Z,93.98
2017-05-15T00:26:37.960Z,93.78
2017-05-15T00:27:47.245Z,93.69
2017-05-15T00:28:56.206Z,93.83
2017-05-15T00:30:05.171Z,93.63
2017-05-15T00:31:14.386Z,93.93
2017-05-15T00:32:23.345Z,94.12
2017-05-15T00:33:32.304Z,94.31
2017-05-15T00:34:41.357Z,93.93
2017-05-15T00:35:50.317Z,93.93
2017-05-15T00:36:59.582Z,93.54
2017-05-15T00:38:08.537Z,92.97
2017-05-15T00:39:17.498Z,93.26
2017-05-15T00:40:26.456Z,93.26
2017-05-15T00:41:35.422Z,93.44
2017-05-15T00:42:45.006Z,93.44
2017-05-15T00:43:53.979Z,93.83
2017-05-15T00:45:02.941Z,92.87
2017-05-15T00:46:11.897Z,93.54
2017-05-15T00:47:20.852Z,93.44
2017-05-15T00:48:30.403Z,93.54
2017-05-15T00:49:39.365Z,93.63
2017-05-15T00:50:48.323Z,93.44
2017-05-15T00:51:57.288Z,93.63
2017-05-15T00:53:06.252Z,93.54
2017-05-15T00:54:15.459Z,93.44
2017-05-15T00:55:24.432Z,92.77
2017-05-15T00:56:33.391Z,92.97
2017-05-15T00:57:42.438Z,92.77
2017-05-15T00:58:51.403Z,92.3
2017-05-15T01:00:00.628Z,92.49
2017-05-15T01:01:09.588Z,92.3
2017-05-15T01:02:18.548Z,92.97
2017-05-15T01:03:27.510Z,92.68
2017-05-15T01:04:36.475Z,92.77
2017-05-15T01:05:45.690Z,92.87
2017-05-15T01:06:54.652Z,92.97
2017-05-15T01:08:03.946Z,93.26
2017-05-15T01:09:12.908Z,92.68
2017-05-15T01:10:21.863Z,92.87
2017-05-15T01:11:31.162Z,93.54
2017-05-15T01:12:40.124Z,93.06
2017-05-15T01:13:49.084Z,93.26
2017-05-15T01:14:58.043Z,92.97
2017-05-15T01:16:07.006Z,92.97
2017-05-15T01:17:31.083Z,92.68
2017-05-15T01:18:40.042Z,92.2
2017-05-15T01:19:49.018Z,92.49
2017-05-15T01:20:58.350Z,92.87
2017-05-15T01:22:07.309Z,92.87
2017-05-15T01:23:16.569Z,93.35
2017-05-15T01:24:25.857Z,93.06
2017-05-15T01:25:34.826Z,93.63
2017-05-15T01:26:43.786Z,93.63
2017-05-15T01:27:52.746Z,92.77
2017-05-15T01:29:02.011Z,93.06
2017-05-15T01:30:10.968Z,93.06
2017-05-15T01:31:19.930Z,92.77
2017-05-15T01:32:28.975Z,92.77
2017-05-15T01:33:37.927Z,93.16
2017-05-15T01:34:47.143Z,93.16
2017-05-15T01:35:56.105Z,93.16
2017-05-15T01:37:05.066Z,93.16
2017-05-15T01:38:14.079Z,93.06
2017-05-15T01:39:23.376Z,93.06
2017-05-15T01:40:32.966Z,92.87
2017-05-15T01:41:41.923Z,92.87
2017-05-15T01:42:50.887Z,92.97
2017-05-15T01:44:00.191Z,93.16
2017-05-15T01:45:09.156Z,92.49
2017-05-15T01:46:18.369Z,93.06
2017-05-15T01:47:27.334Z,92.49
2017-05-15T01:48:36.300Z,92.39
2017-05-15T01:49:45.258Z,92.39
2017-05-15T01:50:54.219Z,92.39
2017-05-15T01:52:03.430Z,92.3
2017-05-15T01:53:12.578Z,92.3
2017-05-15T01:54:21.539Z,92.97
2017-05-15T01:55:30.568Z,92.49
2017-05-15T01:56:39.617Z,92.01
2017-05-15T01:57:48.882Z,92.49
2017-05-15T01:58:57.848Z,92.1
2017-05-15T02:00:06.807Z,91.82
2017-05-15T02:01:15.775Z,91.82
2017-05-15T02:02:24.732Z,91.82
2017-05-15T02:03:33.950Z,92.1
2017-05-15T02:04:42.967Z,91.72
2017-05-15T02:05:51.935Z,91.63
2017-05-15T02:07:00.897Z,91.91
2017-05-15T02:08:09.861Z,92.1
2017-05-15T02:09:19.078Z,91.72
2017-05-15T02:10:28.045Z,92.01
2017-05-15T02:11:37.007Z,91.82
2017-05-15T02:12:45.967Z,91.53
2017-05-15T02:13:54.923Z,91.82
2017-05-15T02:15:04.133Z,91.72
2017-05-15T02:16:13.095Z,91.91
2017-05-15T02:17:22.056Z,91.63
2017-05-15T02:18:31.014Z,91.43
2017-05-15T02:19:39.969Z,91.43
2017-05-15T02:20:49.193Z,91.53
2017-05-15T02:21:58.152Z,90.95
2017-05-15T02:23:07.124Z,91.24
2017-05-15T02:24:16.083Z,91.24
2017-05-15T02:25:25.054Z,90.76
2017-05-15T02:26:34.265Z,90.86
2017-05-15T02:27:43.275Z,91.14
2017-05-15T02:28:52.240Z,90.67
2017-05-15T02:30:01.242Z,91.34
2017-05-15T02:31:10.201Z,90.19
2017-05-15T02:32:19.410Z,91.14
2017-05-15T02:33:28.368Z,90.86
2017-05-15T02:34:37.420Z,90.95
2017-05-15T02:35:46.377Z,90.76
2017-05-15T02:36:55.337Z,90.47
2017-05-15T02:38:04.634Z,90.47
2017-05-15T02:39:13.599Z,90.76
2017-05-15T02:40:22.885Z,91.14
2017-05-15T02:41:31.849Z,90.57
2017-05-15T02:42:40.816Z,89.8
2017-05-15T02:43:50.080Z,89.71
2017-05-15T02:44:59.046Z,89.71
2017-05-15T02:46:08.009Z,89.13
2017-05-15T02:47:16.967Z,89.32
2017-05-15T02:48:25.935Z,89.42
2017-05-15T02:49:35.282Z,88.75
2017-05-15T02:50:44.241Z,88.84
2017-05-15T02:51:53.204Z,89.13
2017-05-15T02:53:02.488Z,89.32
2017-05-15T02:54:11.448Z,88.65
2017-05-15T02:55:20.659Z,88.75
2017-05-15T02:56:29.707Z,89.51
2017-05-15T02:57:38.671Z,89.13
2017-05-15T02:58:47.956Z,89.71
2017-05-15T02:59:56.922Z,89.32
2017-05-15T03:01:06.135Z,88.84
2017-05-15T03:02:15.103Z,88.65
2017-05-15T03:03:24.149Z,88.46
2017-05-15T03:04:39.390Z,88.94
2017-05-15T03:05:48.688Z,88.94
2017-05-15T03:06:58.130Z,89.23
2017-05-15T03:08:07.094Z,89.32
2017-05-15T03:09:16.053Z,89.23
2017-05-15T03:10:25.015Z,88.46
2017-05-15T03:11:33.977Z,89.32
2017-05-15T03:12:43.187Z,89.04
2017-05-15T03:13:52.330Z,89.13
2017-05-15T03:15:01.292Z,88.75
2017-05-15T03:16:10.256Z,89.04
2017-05-15T03:17:19.218Z,89.42
2017-05-15T03:18:28.427Z,88.75
2017-05-15T03:19:37.388Z,88.75
2017-05-15T03:20:46.437Z,88.56
2017-05-15T03:21:55.391Z,88.65
2017-05-15T03:23:04.376Z,88.37
2017-05-15T03:24:13.590Z,87.7
2017-05-15T03:25:22.554Z,88.17
2017-05-15T03:26:31.515Z,88.17
2017-05-15T03:27:40.479Z,88.65
2017-05-15T03:28:49.762Z,88.27
2017-05-15T03:29:58.975Z,87.88
2017-05-15T03:31:07.936Z,88.46
2017-05-15T03:32:16.894Z,88.27
2017-05-15T03:33:25.943Z,88.46
2017-05-15T03:34:34.993Z,88.46
2017-05-15T03:35:44.200Z,88.08
2017-05-15T03:36:53.155Z,87.79
2017-05-15T03:38:02.114Z,87.5
2017-05-15T03:39:11.080Z,87.88
2017-05-15T03:40:20.042Z,88.08
2017-05-15T03:41:29.254Z,88.08
2017-05-15T03:42:38.214Z,87.88
2017-05-15T03:43:47.176Z,87.88
2017-05-15T03:44:56.192Z,87.88
2017-05-15T03:46:05.157Z,88.08
2017-05-15T03:47:14.374Z,88.17
2017-05-15T03:48:23.337Z,87.6
2017-05-15T03:49:32.304Z,87.88
2017-05-15T03:50:41.267Z,88.27
2017-05-15T03:51:50.237Z,87.41
2017-05-15T03:52:59.449Z,87.41
2017-05-15T03:54:08.415Z,87.79
2017-05-15T03:55:17.461Z,87.7
2017-05-15T03:56:26.426Z,87.7
2017-05-15T03:57:35.382Z,87.41
2017-05-15T03:58:44.596Z,87.31
2017-05-15T03:59:53.563Z,87.6
2017-05-15T04:01:02.523Z,87.6
2017-05-15T04:02:11.483Z,88.37
2017-05-15T04:03:20.452Z,88.08
2017-05-15T04:04:29.748Z,87.7
2017-05-15T04:05:38.798Z,87.88
2017-05-15T04:06:47.843Z,87.5
2017-05-15T04:07:56.854Z,87.5
2017-05-15T04:09:05.813Z,86.93
2017-05-15T04:10:15.024Z,86.83
2017-05-15T04:11:24.074Z,87.02
2017-05-15T04:12:33.042Z,87.02
2017-05-15T04:13:42.007Z,86.83
2017-05-15T04:14:50.971Z,86.07
2017-05-15T04:16:00.332Z,86.64
2017-05-15T04:17:09.387Z,86.45
2017-05-15T04:18:18.352Z,86.83
2017-05-15T04:19:27.405Z,86.93
2017-05-15T04:20:36.691Z,86.74
2017-05-15T04:21:45.897Z,86.25
2017-05-15T04:22:54.858Z,84.82
2017-05-15T04:24:03.813Z,85.01
2017-05-15T04:25:12.773Z,84.34
2017-05-15T04:26:21.825Z,84.63
2017-05-15T04:27:31.036Z,84.82
2017-05-15T04:28:39.999Z,85.01
2017-05-15T04:29:49.425Z,84.82
2017-05-15T04:30:58.401Z,85.01
2017-05-15T04:32:07.362Z,84.91
2017-05-15T04:33:16.571Z,84.53
2017-05-15T04:34:25.863Z,84.82
2017-05-15T04:35:34.822Z,84.82
2017-05-15T04:36:43.880Z,84.72
2017-05-15T04:37:52.837Z,84.82
2017-05-15T04:39:02.049Z,84.53
2017-05-15T04:40:11.013Z,85.21
2017-05-15T04:41:19.976Z,84.82
2017-05-15T04:42:28.932Z,85.01
2017-05-15T04:43:37.983Z,85.01
2017-05-15T04:44:47.203Z,84.34
2017-05-15T04:45:56.169Z,84.25
2017-05-15T04:47:05.127Z,84.34
2017-05-15T04:48:14.087Z,83.95
2017-05-15T04:49:23.046Z,84.53
2017-05-15T04:50:32.314Z,84.44
2017-05-15T04:51:41.275Z,84.25
2017-05-15T04:52:50.231Z,84.34
2017-05-15T04:53:59.192Z,84.44
2017-05-15T04:55:08.155Z,83.95
2017-05-15T04:56:17.413Z,84.05
2017-05-15T04:57:26.373Z,84.05
2017-05-15T04:58:35.342Z,83.19
2017-05-15T04:59:44.322Z,83.76
2017-05-15T05:00:53.287Z,83.38
2017-05-15T05:02:02.498Z,83.48
2017-05-15T05:03:11.458Z,83.38
2017-05-15T05:04:20.454Z,83.38
2017-05-15T05:05:29.455Z,83
2017-05-15T05:06:38.420Z,83.38
2017-05-15T05:07:48.044Z,83.29
2017-05-15T05:08:57.095Z,82.32
2017-05-15T05:10:06.058Z,82.04
2017-05-15T05:11:15.017Z,82.71
2017-05-15T05:12:23.983Z,82.62
2017-05-15T05:13:33.191Z,82.71
2017-05-15T05:14:42.149Z,81.08
2017-05-15T05:15:51.111Z,81.18
2017-05-15T05:17:00.077Z,80.79
2017-05-15T05:18:09.042Z,81.27
2017-05-15T05:19:18.258Z,80.79
2017-05-15T05:20:27.220Z,80.6
2017-05-15T05:21:36.179Z,80.89
2017-05-15T05:22:45.134Z,80.51
2017-05-15T05:23:54.091Z,80.32
2017-05-15T05:25:03.308Z,80.32
2017-05-15T05:26:12.311Z,79.74
2017-05-15T05:27:21.383Z,80.32
2017-05-15T05:28:30.346Z,79.83
2017-05-15T05:29:39.301Z,80.03
2017-05-15T05:30:48.509Z,79.55
2017-05-15T05:31:57.467Z,80.16
2017-05-15T05:33:06.427Z,80.03
2017-05-15T05:34:15.410Z,79.26
2017-05-15T05:35:24.380Z,79.88
2017-05-15T05:36:33.598Z,79.78
2017-05-15T05:37:42.559Z,79.39
2017-05-15T05:38:51.610Z,78.92
2017-05-15T05:40:00.572Z,79.11
2017-05-15T05:41:09.543Z,79.21
2017-05-15T05:42:18.756Z,78.92
2017-05-15T05:43:28.050Z,78.92
2017-05-15T05:44:37.013Z,79.11
2017-05-15T05:45:46.061Z,78.72
2017-05-15T05:46:55.057Z,78.63
2017-05-15T05:48:04.265Z,78.72
2017-05-15T05:49:13.228Z,78.34
2017-05-15T05:50:22.281Z,78.34
2017-05-15T05:51:31.243Z,77.19
2017-05-15T05:52:40.203Z,77.09
2017-05-15T05:53:49.415Z,77.19
2017-05-15T05:54:58.373Z,77.09
2017-05-15T05:56:07.329Z,77
2017-05-15T05:57:16.291Z,76.42
2017-05-15T05:58:25.594Z,76.62
2017-05-15T05:59:35.124Z,76.62
2017-05-15T06:00:44.090Z,76.71
2017-05-15T06:01:53.053Z,76.62
2017-05-15T06:03:02.009Z,76.52
2017-05-15T06:04:10.965Z,75.75
2017-05-15T06:05:20.175Z,75.7
2017-05-15T06:06:29.137Z,75.6
2017-05-15T06:07:38.093Z,75.5
2017-05-15T06:08:47.060Z,75.4
2017-05-15T06:09:56.023Z,75.4
2017-05-15T06:11:05.234Z,75.4
2017-05-15T06:12:14.195Z,74.83
2017-05-15T06:13:23.161Z,75.31
2017-05-15T06:14:32.210Z,75.31
2017-05-15T06:15:41.178Z,75.02
2017-05-15T06:16:50.442Z,74.44
2017-05-15T06:17:59.411Z,74.44
2017-05-15T06:19:08.367Z,74.93
2017-05-15T06:20:17.332Z,75.12
2017-05-15T06:21:26.292Z,74.93
2017-05-15T06:22:35.504Z,74.83
2017-05-15T06:23:44.785Z,74.73
2017-05-15T06:24:53.839Z,74.54
2017-05-15T06:26:02.803Z,74.06
2017-05-15T06:27:11.769Z,73.62
2017-05-15T06:28:20.982Z,73.24
2017-05-15T06:29:29.944Z,73.04
2017-05-15T06:30:38.998Z,73.14
2017-05-15T06:31:47.959Z,73.14
2017-05-15T06:32:56.919Z,73.04
2017-05-15T06:34:06.134Z,73.14
2017-05-15T06:35:15.096Z,73.04
2017-05-15T06:36:24.057Z,72.85
2017-05-15T06:37:33.016Z,73.04
2017-05-15T06:38:41.974Z,73.24
2017-05-15T06:39:51.186Z,73.33
2017-05-15T06:41:00.157Z,73.14
2017-05-15T06:42:09.125Z,73.33
2017-05-15T06:43:18.177Z,73.04
2017-05-15T06:44:27.141Z,72.85
2017-05-15T06:45:36.410Z,73.24
2017-05-15T06:46:45.371Z,72.66
2017-05-15T06:47:54.333Z,72.28
2017-05-15T06:49:03.295Z,72.28
2017-05-15T06:50:12.249Z,72.47
2017-05-15T06:51:21.451Z,71.98
2017-05-15T06:52:30.413Z,71.98
2017-05-15T06:53:39.374Z,71.89
2017-05-15T06:54:48.339Z,71.98
2017-05-15T06:55:57.305Z,72.08
2017-05-15T06:57:06.632Z,71.93
2017-05-15T06:58:15.592Z,71.31
2017-05-15T06:59:24.555Z,71.35
2017-05-15T07:00:33.513Z,71.25
2017-05-15T07:01:42.471Z,71.25
2017-05-15T07:02:51.687Z,70.78
2017-05-15T07:04:00.657Z,70.97
2017-05-15T07:05:09.620Z,71.06
2017-05-15T07:06:18.581Z,70.49
2017-05-15T07:07:27.629Z,70.78
2017-05-15T07:08:36.840Z,70.29
2017-05-15T07:09:45.804Z,69.81
2017-05-15T07:10:54.761Z,69.43
2017-05-15T07:12:04.049Z,69.43
2017-05-15T07:13:13.034Z,69.53
2017-05-15T07:14:22.249Z,69.56
2017-05-15T07:15:31.203Z,69.34
2017-05-15T07:16:40.162Z,69.66
2017-05-15T07:17:49.120Z,69.46
2017-05-15T07:18:58.173Z,68.98
2017-05-15T07:20:07.384Z,69.18
2017-05-15T07:21:16.436Z,68.7
2017-05-15T07:22:25.398Z,68.41
2017-05-15T07:23:34.358Z,68.41
2017-05-15T07:24:43.321Z,67.83
2017-05-15T07:25:52.538Z,68.02
2017-05-15T07:27:01.589Z,67.93
2017-05-15T07:28:10.558Z,68.12
2017-05-15T07:29:19.521Z,67.64
2017-05-15T07:30:28.482Z,67.64
2017-05-15T07:31:38.076Z,67.83
2017-05-15T07:32:47.370Z,67.96
2017-05-15T07:33:56.342Z,67.54
2017-05-15T07:35:05.393Z,67.19
2017-05-15T07:36:14.350Z,67
2017-05-15T07:37:23.568Z,67.29
2017-05-15T07:38:32.534Z,67.48
2017-05-15T07:39:41.496Z,67.38
2017-05-15T07:40:50.458Z,67.1
2017-05-15T07:41:59.416Z,66.52
2017-05-15T07:43:08.624Z,66.23
2017-05-15T07:44:17.590Z,66.71
2017-05-15T07:45:26.554Z,66.14
2017-05-15T07:46:35.514Z,66.14
2017-05-15T07:47:44.858Z,66.14
2017-05-15T07:48:54.068Z,66.14
2017-05-15T07:50:03.032Z,66.04
2017-05-15T07:51:12.325Z,66.04
2017-05-15T07:52:21.283Z,65.94
2017-05-15T07:53:30.332Z,66.07
2017-05-15T07:54:39.556Z,65.97
2017-05-15T07:55:48.608Z,65.69
2017-05-15T07:56:57.572Z,65.5
2017-05-15T07:58:06.538Z,65.3
2017-05-15T07:59:15.587Z,65.01
2017-05-15T08:00:24.801Z,64.47
2017-05-15T08:01:33.763Z,64.15
2017-05-15T08:02:42.725Z,64.63
2017-05-15T08:03:51.687Z,64.92
2017-05-15T08:05:00.739Z,65.01
2017-05-15T08:06:09.947Z,64.76
2017-05-15T08:07:19.005Z,64.92
2017-05-15T08:08:28.067Z,65.01
2017-05-15T08:09:37.041Z,65.3
2017-05-15T08:10:46.007Z,65.88
2017-05-15T08:11:55.424Z,66.07
2017-05-15T08:13:04.467Z,66.07
2017-05-15T08:14:13.434Z,66.46
2017-05-15T08:15:22.403Z,66.17
2017-05-15T08:16:31.369Z,65.78
2017-05-15T08:17:40.954Z,66.27
2017-05-15T08:18:49.927Z,66.17
2017-05-15T08:19:59.064Z,66.27
2017-05-15T08:21:08.364Z,66.36
2017-05-15T08:22:17.415Z,66.61
2017-05-15T08:23:26.677Z,66.74
2017-05-15T08:24:35.640Z,66.42
2017-05-15T08:25:44.604Z,66.23
2017-05-15T08:26:53.621Z,66.04
2017-05-15T08:28:02.585Z,66.14
2017-05-15T08:29:11.795Z,66.33
2017-05-15T08:30:20.851Z,66.46
2017-05-15T08:31:30.144Z,66.07
2017-05-15T08:32:39.157Z,65.97
2017-05-15T08:33:48.206Z,65.3
2017-05-15T08:34:57.431Z,65.4
2017-05-15T08:36:06.399Z,65.11
2017-05-15T08:37:15.449Z,65.5
2017-05-15T08:38:24.416Z,65.5
2017-05-15T08:39:33.379Z,65.3
2017-05-15T08:40:42.641Z,64.63
2017-05-15T08:41:51.607Z,64.53
2017-05-15T08:43:00.572Z,64.82
2017-05-15T08:44:09.532Z,64.76
2017-05-15T08:45:18.581Z,65.43
2017-05-15T08:46:27.795Z,64.86
2017-05-15T08:47:36.756Z,64.47
2017-05-15T08:48:45.733Z,64.66
2017-05-15T08:49:54.696Z,64.08
2017-05-15T08:51:03.657Z,64.37
2017-05-15T08:52:12.868Z,64.28
2017-05-15T08:53:21.827Z,63.99
2017-05-15T08:54:30.789Z,64.66
2017-05-15T08:55:39.750Z,64.53
2017-05-15T08:56:48.707Z,64.43
2017-05-15T08:57:57.923Z,65.01
2017-05-15T08:59:06.885Z,64.82
2017-05-15T09:00:15.893Z,64.5
2017-05-15T09:01:24.859Z,64.79
2017-05-15T09:02:33.817Z,64.69
2017-05-15T09:03:43.083Z,64.43
2017-05-15T09:04:52.043Z,64.25
2017-05-15T09:06:01.006Z,64.15
2017-05-15T09:07:10.051Z,64.25
2017-05-15T09:08:19.019Z,64.4
2017-05-15T09:09:28.228Z,64.82
2017-05-15T09:10:37.197Z,65.01
2017-05-15T09:11:46.157Z,65.4
2017-05-15T09:12:55.120Z,65.5
2017-05-15T09:14:04.083Z,65.3
2017-05-15T09:15:13.500Z,65.2
2017-05-15T09:16:22.784Z,64.73
2017-05-15T09:17:31.748Z,65.2
2017-05-15T09:18:40.714Z,65.56
2017-05-15T09:19:49.680Z,65.2
2017-05-15T09:20:58.902Z,65.17
2017-05-15T09:22:07.867Z,65.94
2017-05-15T09:23:16.836Z,66.04
2017-05-15T09:24:25.806Z,66.23
2017-05-15T09:25:34.768Z,66.33
2017-05-15T09:26:43.980Z,66.33
2017-05-15T09:27:53.031Z,65.46
2017-05-15T09:29:01.998Z,65.17
2017-05-15T09:30:10.961Z,65.46
2017-05-15T09:31:19.920Z,65.37
2017-05-15T09:32:29.131Z,65.56
2017-05-15T09:33:38.097Z,65.27
2017-05-15T09:34:47.058Z,65.37
2017-05-15T09:35:56.014Z,65.05
2017-05-15T09:37:04.979Z,64.98
2017-05-15T09:38:14.193Z,65.08
2017-05-15T09:39:23.480Z,64.6
2017-05-15T09:40:32.444Z,64.79
2017-05-15T09:41:41.412Z,64.12
2017-05-15T09:42:50.381Z,64.22
2017-05-15T09:43:59.589Z,64.12
2017-05-15T09:45:08.550Z,64.12
2017-05-15T09:46:17.513Z,63.92
2017-05-15T09:47:26.481Z,63.64
2017-05-15T09:48:35.441Z,64.02
2017-05-15T09:49:44.659Z,63.83
2017-05-15T09:50:53.625Z,63.64
2017-05-15T09:52:02.631Z,64.22
2017-05-15T09:53:11.599Z,64.12
2017-05-15T09:54:20.595Z,64.4
2017-05-15T09:55:29.808Z,64.02
2017-05-15T09:56:38.773Z,63.92
2017-05-15T09:57:47.932Z,62.61
2017-05-15T09:58:56.895Z,61.91
2017-05-15T10:00:05.866Z,61.46
2017-05-15T10:01:15.082Z,61.74
2017-05-15T10:02:24.049Z,60.78
2017-05-15T10:03:33.011Z,61.07
2017-05-15T10:04:41.973Z,60.88
2017-05-15T10:05:50.946Z,59.92
2017-05-15T10:07:00.163Z,60.21
2017-05-15T10:08:09.122Z,59.82
2017-05-15T10:09:18.085Z,59.82
2017-05-15T10:10:27.096Z,59.53
2017-05-15T10:11:36.056Z,59.63
2017-05-15T10:12:45.273Z,59.63
2017-05-15T10:13:54.238Z,59.44
2017-05-15T10:15:03.205Z,59.72
2017-05-15T10:16:12.172Z,59.82
2017-05-15T10:17:21.134Z,59.66
2017-05-15T10:18:30.404Z,58.79
2017-05-15T10:19:39.370Z,57.83
2017-05-15T10:20:48.334Z,57.92
2017-05-15T10:21:57.298Z,58.22
2017-05-15T10:23:06.257Z,58.31
2017-05-15T10:24:15.568Z,58.7
2017-05-15T10:25:24.530Z,58.89
2017-05-15T10:26:33.490Z,59.17
2017-05-15T10:27:42.450Z,59.37
2017-05-15T10:28:51.415Z,59.66
2017-05-15T10:30:00.951Z,59.66
2017-05-15T10:31:09.921Z,59.66
2017-05-15T10:32:18.900Z,59.66
2017-05-15T10:33:27.864Z,59.75
2017-05-15T10:34:36.830Z,59.66
2017-05-15T10:35:46.046Z,59.37
2017-05-15T10:36:55.010Z,59.08
2017-05-15T10:38:03.975Z,58.4
2017-05-15T10:39:12.941Z,58.5
2017-05-15T10:40:21.900Z,56.77
2017-05-15T10:41:31.114Z,56.77
2017-05-15T10:42:40.083Z,56
2017-05-15T10:43:49.056Z,55.9
2017-05-15T10:44:58.015Z,56.2
2017-05-15T10:46:06.975Z,56.87
2017-05-15T10:47:16.185Z,56.77
2017-05-15T10:48:25.151Z,57.25
2017-05-15T10:49:34.121Z,57.15
2017-05-15T10:50:43.080Z,57.25
2017-05-15T10:51:52.043Z,57.35
2017-05-15T10:53:01.304Z,57.35
2017-05-15T10:54:10.273Z,56.58
2017-05-15T10:55:19.240Z,55.9
2017-05-15T10:56:28.201Z,55.81
2017-05-15T10:57:37.177Z,54.78
2017-05-15T10:58:46.395Z,54.58
2017-05-15T10:59:55.356Z,54.87
2017-05-15T11:01:04.331Z,55.07
2017-05-15T11:02:13.295Z,55.65
2017-05-15T11:03:22.265Z,55.35
2017-05-15T11:04:32.027Z,55.65
2017-05-15T11:05:41.049Z,54.78
2017-05-15T11:06:50.012Z,55.16
2017-05-15T11:07:58.979Z,55.26
2017-05-15T11:09:07.988Z,54.97
2017-05-15T11:10:17.204Z,54.65
2017-05-15T11:11:26.168Z,54.68
2017-05-15T11:12:35.134Z,54.68
2017-05-15T11:13:44.096Z,54
2017-05-15T11:14:53.059Z,54.3
2017-05-15T11:16:02.274Z,53.72
2017-05-15T11:17:11.240Z,54.1
2017-05-15T11:18:20.215Z,53.23
2017-05-15T11:19:29.179Z,53.23
2017-05-15T11:20:38.150Z,53.14
2017-05-15T11:21:47.637Z,52.85
2017-05-15T11:22:56.600Z,52.49
2017-05-15T11:24:05.562Z,51.34
2017-05-15T11:25:14.530Z,52.01
2017-05-15T11:26:23.492Z,51.92
2017-05-15T11:27:32.905Z,51.75
2017-05-15T11:28:41.925Z,51.84
2017-05-15T11:29:50.895Z,52.04
2017-05-15T11:31:00.186Z,51.26
2017-05-15T11:32:09.154Z,47.6
2017-05-15T11:33:18.372Z,46.93
2017-05-15T11:34:27.334Z,45.87
2017-05-15T11:35:36.290Z,45.84
2017-05-15T11:36:45.252Z,46.15
2017-05-15T11:37:54.215Z,45.77
2017-05-15T11:39:03.430Z,45.87
2017-05-15T11:40:12.399Z,46.64
2017-05-15T11:41:21.366Z,47.7
2017-05-15T11:42:30.332Z,48.66
2017-05-15T11:43:39.302Z,48.66
2017-05-15T11:44:48.512Z,49.43
2017-05-15T11:45:57.478Z,49.53
2017-05-15T11:47:06.440Z,50.01
2017-05-15T11:48:15.406Z,49.63
2017-05-15T11:49:24.372Z,48.47
2017-05-15T11:50:33.584Z,48.76
2017-05-15T11:51:42.542Z,48.66
2017-05-15T11:52:51.502Z,48.66
2017-05-15T11:54:00.460Z,48.47
2017-05-15T11:55:09.422Z,47.51
2017-05-15T11:56:18.638Z,48.08
2017-05-15T11:57:27.604Z,48.18
2017-05-15T11:58:36.568Z,46.55
2017-05-15T11:59:45.622Z,45.97
2017-05-15T12:00:54.588Z,45.2
2017-05-15T12:02:03.887Z,45.39
2017-05-15T12:03:12.849Z,45.58
2017-05-15T12:04:21.807Z,45.77
2017-05-15T12:05:30.770Z,45.77
2017-05-15T12:06:39.754Z,45.68
2017-05-15T12:07:48.969Z,45.68
2017-05-15T12:08:57.929Z,46.83
2017-05-15T12:10:06.892Z,46.64
2017-05-15T12:11:16.028Z,46.83
2017-05-15T12:12:24.992Z,47.31
2017-05-15T12:13:34.260Z,47.7
2017-05-15T12:14:43.224Z,47.6
2017-05-15T12:15:52.187Z,47.99
2017-05-15T12:17:01.151Z,47.7
2017-05-15T12:18:10.109Z,47.89
2017-05-15T12:19:19.324Z,48.18
2017-05-15T12:20:28.289Z,48.08
2017-05-15T12:21:37.251Z,48.16
2017-05-15T12:22:46.215Z,47.87
2017-05-15T12:23:55.178Z,47.8
2017-05-15T12:25:04.391Z,48.28
2017-05-15T12:26:13.347Z,47.31
2017-05-15T12:27:22.320Z,46.71
2017-05-15T12:28:31.284Z,46.45
2017-05-15T12:29:40.244Z,46.62
2017-05-15T12:30:49.549Z,46.06
2017-05-15T12:31:58.508Z,45.2
2017-05-15T12:33:07.467Z,45.39
2017-05-15T12:34:16.435Z,44.52
2017-05-15T12:35:25.407Z,44.62
2017-05-15T12:36:34.624Z,44.62
2017-05-15T12:37:43.588Z,44.23
2017-05-15T12:38:52.554Z,44.32
2017-05-15T12:40:01.514Z,44.71
2017-05-15T12:41:10.475Z,45.29
2017-05-15T12:42:19.824Z,45
2017-05-15T12:43:28.795Z,45.77
2017-05-15T12:44:37.766Z,45.48
2017-05-15T12:45:46.730Z,45.48
2017-05-15T12:46:55.702Z,44.04
2017-05-15T12:48:04.920Z,43.94
2017-05-15T12:49:13.882Z,43.37
2017-05-15T12:50:22.847Z,43.55
2017-05-15T12:51:31.809Z,43.07
2017-05-15T12:52:40.770Z,43.65
2017-05-15T12:53:49.978Z,43.46
2017-05-15T12:54:59.029Z,43.55
2017-05-15T12:56:07.990Z,43.85
2017-05-15T12:57:16.954Z,44.04
2017-05-15T12:58:25.932Z,43.63
2017-05-15T12:59:35.144Z,43.17
2017-05-15T13:00:44.106Z,42.4
2017-05-15T13:01:53.064Z,42.4
2017-05-15T13:03:02.353Z,42.3
2017-05-15T13:04:11.315Z,41.82
2017-05-15T13:05:20.733Z,40.37
2017-05-15T13:06:29.694Z,40.19
2017-05-15T13:07:38.658Z,39.61
2017-05-15T13:08:47.632Z,38.74
2017-05-15T13:09:56.595Z,38.64
2017-05-15T13:11:05.858Z,39.51
2017-05-15T13:12:14.822Z,40.09
2017-05-15T13:13:23.797Z,40.47
2017-05-15T13:14:32.760Z,40.86
2017-05-15T13:15:41.725Z,41.34
2017-05-15T13:16:50.934Z,40.86
2017-05-15T13:17:59.897Z,40.47
2017-05-15T13:19:09.061Z,40.37
2017-05-15T13:20:18.020Z,39.51
2017-05-15T13:21:26.978Z,39.22
2017-05-15T13:22:36.195Z,39.12
2017-05-15T13:23:45.210Z,38.64
2017-05-15T13:24:54.342Z,38.54
2017-05-15T13:26:03.305Z,38.26
2017-05-15T13:27:12.264Z,39.03
2017-05-15T13:28:21.478Z,38.83
2017-05-15T13:29:30.444Z,38.93
2017-05-15T13:30:39.409Z,38.95
2017-05-15T13:31:48.370Z,39.04
2017-05-15T13:32:57.429Z,38.95
2017-05-15T13:34:06.727Z,38.85
2017-05-15T13:35:16.092Z,38.66
2017-05-15T13:36:25.050Z,38.85
2017-05-15T13:37:34.017Z,38.85
2017-05-15T13:38:42.977Z,39.04
2017-05-15T13:39:52.195Z,38.66
2017-05-15T13:41:01.157Z,38.95
2017-05-15T13:42:10.119Z,38.66
2017-05-15T13:43:19.089Z,38.46
2017-05-15T13:44:28.139Z,38.37
2017-05-15T13:45:37.731Z,38.18
2017-05-15T13:46:46.701Z,37.21
2017-05-15T13:47:55.671Z,37.79
2017-05-15T13:49:04.674Z,37.6
2017-05-15T13:50:13.633Z,37.02
2017-05-15T13:51:22.850Z,37.21
2017-05-15T13:52:31.819Z,37.41
2017-05-15T13:53:40.785Z,37.41
2017-05-15T13:54:49.746Z,37.02
2017-05-15T13:55:58.706Z,36.44
2017-05-15T13:57:07.919Z,36.44
2017-05-15T13:58:16.942Z,36.25
2017-05-15T13:59:25.906Z,36.25
2017-05-15T14:00:34.873Z,36.15
2017-05-15T14:01:43.836Z,36.15
2017-05-15T14:02:53.048Z,36.54
2017-05-15T14:04:02.019Z,36.54
2017-05-15T14:05:10.982Z,36.94
2017-05-15T14:06:19.953Z,36.85
2017-05-15T14:07:28.917Z,36.54
2017-05-15T14:08:38.128Z,37.02
2017-05-15T14:09:47.091Z,36.93
2017-05-15T14:10:56.054Z,37.6
2017-05-15T14:12:05.106Z,38.08
2017-05-15T14:13:14.068Z,37.79
2017-05-15T14:14:23.289Z,37.98
2017-05-15T14:15:32.575Z,37.5
2017-05-15T14:16:41.542Z,37.5
2017-05-15T14:17:50.513Z,37.79
2017-05-15T14:18:59.474Z,38.08
2017-05-15T14:20:08.734Z,38.28
2017-05-15T14:21:17.697Z,38.46
2017-05-15T14:22:26.660Z,38.76
2017-05-15T14:23:35.625Z,38.66
2017-05-15T14:24:44.582Z,38.46
2017-05-15T14:25:53.795Z,38.37
2017-05-15T14:27:02.759Z,38.66
2017-05-15T14:28:11.730Z,38.76
2017-05-15T14:29:20.693Z,38.66
2017-05-15T14:30:29.652Z,38.28
2017-05-15T14:31:38.866Z,38.46
2017-05-15T14:32:47.828Z,37.98
2017-05-15T14:33:56.788Z,37.89
2017-05-15T14:35:05.746Z,38.18
2017-05-15T14:36:14.708Z,37.79
2017-05-15T14:37:23.932Z,38.18
2017-05-15T14:38:33.525Z,37.7
2017-05-15T14:39:42.487Z,37.89
2017-05-15T14:40:51.539Z,38.08
2017-05-15T14:42:00.499Z,38.18
2017-05-15T14:43:09.713Z,38.28
2017-05-15T14:44:18.994Z,38.56
2017-05-15T14:45:27.963Z,37.98
2017-05-15T14:46:36.930Z,38.18
2017-05-15T14:47:45.896Z,37.7
2017-05-15T14:48:55.286Z,37.79
2017-05-15T14:50:04.252Z,37.7
2017-05-15T14:51:13.222Z,37.79
2017-05-15T14:52:22.188Z,37.7